Time,TemperatureF,DewpointF,PressureIn,WindDirection,WindDirectionDegrees,WindSpeedMPH,WindSpeedGustMPH,Humidity,HourlyPrecipIn,Conditions,Clouds,dailyrainin,SoftwareType,DateUTC
2013-07-23 00:00:00,61.3,53.7,29.94,WNW,302,0.0,0.0,76,0.00,,,0.00,Wunderground v.1.15,2013-07-23 07:00:00,
2013-07-23 00:10:00,61.1,54.2,29.96,WNW,302,0.0,0.0,78,0.00,,,0.00,Wunderground v.1.15,2013-07-23 07:10:00,
2013-07-23 00:15:00,60.8,53.9,29.96,NW,306,0.0,1.0,78,0.00,,,0.00,Wunderground v.1.15,2013-07-23 07:15:00,
2013-07-23 00:25:00,60.5,54.0,29.96,NW,305,0.0,1.0,79,0.00,,,0.00,Wunderground v.1.15,2013-07-23 07:25:00,
2013-07-23 00:35:00,60.3,53.4,29.95,WNW,298,0.0,0.0,78,0.00,,,0.00,Wunderground v.1.15,2013-07-23 07:35:00,
2013-07-23 00:40:00,60.3,53.8,29.96,WNW,298,0.0,0.0,79,0.00,,,0.00,Wunderground v.1.15,2013-07-23 07:40:00,
2013-07-23 00:45:00,60.2,53.7,29.95,NW,306,0.0,0.0,79,0.00,,,0.00,Wunderground v.1.15,2013-07-23 07:45:00,
2013-07-23 00:50:00,60.2,53.3,29.95,WNW,291,0.0,0.0,78,0.00,,,0.00,Wunderground v.1.15,2013-07-23 07:50:00,
2013-07-23 01:00:00,60.5,53.6,29.94,WNW,303,2.0,3.0,78,0.00,,,0.00,Wunderground v.1.15,2013-07-23 08:00:00,
2013-07-23 01:05:00,60.7,53.8,29.95,NW,313,2.0,3.0,78,0.00,,,0.00,Wunderground v.1.15,2013-07-23 08:05:00,
2013-07-23 01:10:00,60.6,54.0,29.96,NW,313,1.0,1.0,79,0.00,,,0.00,Wunderground v.1.15,2013-07-23 08:10:00,
2013-07-23 01:15:00,60.3,53.8,29.95,WNW,294,0.0,1.0,79,0.00,,,0.00,Wunderground v.1.15,2013-07-23 08:15:00,
2013-07-23 01:20:00,60.1,53.6,29.96,WSW,254,0.0,0.0,79,0.00,,,0.00,Wunderground v.1.15,2013-07-23 08:20:00,
2013-07-23 01:30:00,59.8,53.3,29.96,WSW,257,0.0,0.0,79,0.00,,,0.00,Wunderground v.1.15,2013-07-23 08:30:00,
2013-07-23 01:35:00,59.7,53.2,29.96,WSW,257,0.0,0.0,79,0.00,,,0.00,Wunderground v.1.15,2013-07-23 08:35:00,
2013-07-23 01:40:00,59.6,53.1,29.96,West,269,0.0,0.0,79,0.00,,,0.00,Wunderground v.1.15,2013-07-23 08:40:00,
2013-07-23 01:45:00,59.5,53.3,29.96,WNW,298,0.0,0.0,80,0.00,,,0.00,Wunderground v.1.15,2013-07-23 08:45:00,
2013-07-23 01:50:00,59.3,53.1,29.96,NW,317,0.0,2.0,80,0.00,,,0.00,Wunderground v.1.15,2013-07-23 08:50:00,
2013-07-23 01:55:00,59.1,53.3,29.96,NW,305,1.0,2.0,81,0.00,,,0.00,Wunderground v.1.15,2013-07-23 08:55:00,
2013-07-23 02:00:00,59.1,53.3,29.96,NW,309,0.0,0.0,81,0.00,,,0.00,Wunderground v.1.15,2013-07-23 09:00:00,
2013-07-23 02:10:00,58.9,53.1,29.96,WNW,301,1.0,1.0,81,0.00,,,0.00,Wunderground v.1.15,2013-07-23 09:10:00,
2013-07-23 02:20:00,58.8,53.3,29.96,WNW,300,0.0,0.0,82,0.00,,,0.00,Wunderground v.1.15,2013-07-23 09:20:00,
2013-07-23 02:25:00,58.8,53.3,29.95,WNW,303,0.0,0.0,82,0.00,,,0.00,Wunderground v.1.15,2013-07-23 09:25:00,
2013-07-23 02:30:00,58.9,53.4,29.96,WNW,300,0.0,0.0,82,0.00,,,0.00,Wunderground v.1.15,2013-07-23 09:30:00,
2013-07-23 02:35:00,58.9,53.4,29.96,WNW,300,0.0,0.0,82,0.00,,,0.00,Wunderground v.1.15,2013-07-23 09:35:00,
2013-07-23 02:45:00,59.0,53.2,29.96,NW,304,0.0,1.0,81,0.00,,,0.00,Wunderground v.1.15,2013-07-23 09:45:00,
2013-07-23 02:50:00,59.4,52.9,29.96,NW,312,0.0,0.0,79,0.00,,,0.00,Wunderground v.1.15,2013-07-23 09:50:00,
2013-07-23 02:55:00,59.8,53.3,29.95,NW,309,0.0,0.0,79,0.00,,,0.00,Wunderground v.1.15,2013-07-23 09:55:00,
2013-07-23 03:05:00,60.0,53.1,29.95,NW,306,0.0,0.0,78,0.00,,,0.00,Wunderground v.1.15,2013-07-23 10:05:00,
2013-07-23 03:10:00,60.1,53.6,29.95,NW,306,0.0,0.0,79,0.00,,,0.00,Wunderground v.1.15,2013-07-23 10:10:00,
2013-07-23 03:15:00,60.0,53.5,29.94,NW,306,0.0,0.0,79,0.00,,,0.00,Wunderground v.1.15,2013-07-23 10:15:00,
2013-07-23 03:25:00,59.8,53.6,29.94,NW,306,0.0,0.0,80,0.00,,,0.00,Wunderground v.1.15,2013-07-23 10:25:00,
2013-07-23 03:30:00,59.7,53.2,29.94,NNW,331,0.0,1.0,79,0.00,,,0.00,Wunderground v.1.15,2013-07-23 10:30:00,
2013-07-23 03:35:00,60.3,53.1,29.94,NNW,330,0.0,1.0,77,0.00,,,0.00,Wunderground v.1.15,2013-07-23 10:35:00,
2013-07-23 03:40:00,60.9,52.6,29.93,SE,139,1.0,1.0,74,0.00,,,0.00,Wunderground v.1.15,2013-07-23 10:40:00,
2013-07-23 03:45:00,61.5,52.4,29.93,WSW,257,1.0,1.0,72,0.00,,,0.00,Wunderground v.1.15,2013-07-23 10:45:00,
2013-07-23 03:55:00,63.1,52.8,29.93,ESE,109,1.0,1.0,69,0.00,,,0.00,Wunderground v.1.15,2013-07-23 10:55:00,
2013-07-23 04:00:00,63.4,53.0,29.93,East,98,1.0,1.0,69,0.00,,,0.00,Wunderground v.1.15,2013-07-23 11:00:00,
2013-07-23 04:10:00,63.8,53.4,29.95,NW,325,0.0,0.0,69,0.00,,,0.00,Wunderground v.1.15,2013-07-23 11:10:00,
2013-07-23 04:15:00,63.9,53.5,29.95,SSW,206,0.0,3.0,69,0.00,,,0.00,Wunderground v.1.15,2013-07-23 11:15:00,
2013-07-23 04:25:00,64.2,53.4,29.97,ESE,113,1.0,1.0,68,0.00,,,0.00,Wunderground v.1.15,2013-07-23 11:25:00,
2013-07-23 04:30:00,64.2,53.8,29.98,East,84,0.0,2.0,69,0.00,,,0.00,Wunderground v.1.15,2013-07-23 11:30:00,
2013-07-23 04:35:00,64.0,53.6,29.98,East,84,0.0,2.0,69,0.00,,,0.00,Wunderground v.1.15,2013-07-23 11:35:00,
2013-07-23 04:40:00,63.8,53.8,29.98,East,84,0.0,0.0,70,0.00,,,0.00,Wunderground v.1.15,2013-07-23 11:40:00,
2013-07-23 04:50:00,63.3,54.1,29.98,East,84,0.0,0.0,72,0.00,,,0.00,Wunderground v.1.15,2013-07-23 11:50:00,
2013-07-23 04:55:00,62.7,53.9,29.97,East,84,0.0,2.0,73,0.00,,,0.00,Wunderground v.1.15,2013-07-23 11:55:00,
2013-07-23 05:00:00,62.0,53.6,29.97,East,84,0.0,0.0,74,0.00,,,0.00,Wunderground v.1.15,2013-07-23 12:00:00,
2013-07-23 05:10:00,61.2,53.6,29.99,East,95,0.0,0.0,76,0.00,,,0.00,Wunderground v.1.15,2013-07-23 12:10:00,
2013-07-23 05:15:00,61.1,53.8,29.99,East,95,0.0,0.0,77,0.00,,,0.00,Wunderground v.1.15,2013-07-23 12:15:00,
2013-07-23 05:20:00,60.9,54.0,29.99,East,95,0.0,0.0,78,0.00,,,0.00,Wunderground v.1.15,2013-07-23 12:20:00,
2013-07-23 05:25:00,60.8,53.9,29.99,East,95,0.0,0.0,78,0.00,,,0.00,Wunderground v.1.15,2013-07-23 12:25:00,
2013-07-23 05:30:00,60.8,53.9,29.99,East,95,0.0,0.0,78,0.00,,,0.00,Wunderground v.1.15,2013-07-23 12:30:00,
2013-07-23 05:35:00,60.8,53.9,29.99,East,95,0.0,0.0,78,0.00,,,0.00,Wunderground v.1.15,2013-07-23 12:35:00,
2013-07-23 05:40:00,60.9,54.0,30.00,East,95,0.0,0.0,78,0.00,,,0.00,Wunderground v.1.15,2013-07-23 12:40:00,
2013-07-23 05:45:00,60.9,54.0,29.99,East,95,0.0,0.0,78,0.00,,,0.00,Wunderground v.1.15,2013-07-23 12:45:00,
2013-07-23 05:55:00,60.5,54.0,29.99,South,182,0.0,1.0,79,0.00,,,0.00,Wunderground v.1.15,2013-07-23 12:55:00,
2013-07-23 06:00:00,60.2,54.0,30.00,South,182,0.0,0.0,80,0.00,,,0.00,Wunderground v.1.15,2013-07-23 13:00:00,
2013-07-23 06:05:00,59.6,53.8,29.99,West,269,0.0,0.0,81,0.00,,,0.00,Wunderground v.1.15,2013-07-23 13:05:00,
2013-07-23 06:10:00,59.1,53.6,29.99,West,269,0.0,1.0,82,0.00,,,0.00,Wunderground v.1.15,2013-07-23 13:10:00,
2013-07-23 06:20:00,58.7,53.5,29.98,WSW,256,0.0,0.0,83,0.00,,,0.00,Wunderground v.1.15,2013-07-23 13:20:00,
2013-07-23 06:25:00,58.7,53.9,29.98,WSW,257,0.0,0.0,84,0.00,,,0.00,Wunderground v.1.15,2013-07-23 13:25:00,
2013-07-23 06:30:00,58.7,53.9,29.98,WNW,300,0.0,0.0,84,0.00,,,0.00,Wunderground v.1.15,2013-07-23 13:30:00,
2013-07-23 06:35:00,58.6,53.8,29.98,WNW,296,0.0,0.0,84,0.00,,,0.00,Wunderground v.1.15,2013-07-23 13:35:00,
2013-07-23 06:40:00,58.5,53.7,29.98,WNW,294,0.0,1.0,84,0.00,,,0.00,Wunderground v.1.15,2013-07-23 13:40:00,
2013-07-23 06:45:00,58.4,53.9,29.98,West,279,0.0,1.0,85,0.00,,,0.00,Wunderground v.1.15,2013-07-23 13:45:00,
2013-07-23 06:55:00,58.5,54.0,29.98,West,275,0.0,0.0,85,0.00,,,0.00,Wunderground v.1.15,2013-07-23 13:55:00,
2013-07-23 07:00:00,58.6,54.1,29.98,West,261,0.0,2.0,85,0.00,,,0.00,Wunderground v.1.15,2013-07-23 14:00:00,
2013-07-23 07:05:00,58.7,54.2,29.99,West,267,1.0,2.0,85,0.00,,,0.00,Wunderground v.1.15,2013-07-23 14:05:00,
2013-07-23 07:10:00,58.9,54.1,29.99,WNW,282,0.0,0.0,84,0.00,,,0.00,Wunderground v.1.15,2013-07-23 14:10:00,
2013-07-23 07:20:00,59.3,54.5,29.98,West,273,0.0,0.0,84,0.00,,,0.00,Wunderground v.1.15,2013-07-23 14:20:00,
2013-07-23 07:25:00,59.5,54.3,29.98,West,259,0.0,0.0,83,0.00,,,0.00,Wunderground v.1.15,2013-07-23 14:25:00,
2013-07-23 07:30:00,59.9,54.7,29.99,West,260,0.0,0.0,83,0.00,,,0.00,Wunderground v.1.15,2013-07-23 14:30:00,
2013-07-23 07:35:00,60.4,54.9,29.99,West,278,0.0,1.0,82,0.00,,,0.00,Wunderground v.1.15,2013-07-23 14:35:00,
2013-07-23 07:45:00,61.6,55.4,29.98,WSW,255,1.0,2.0,80,0.00,,,0.00,Wunderground v.1.15,2013-07-23 14:45:00,
2013-07-23 07:50:00,62.3,55.4,29.99,NW,314,0.0,0.0,78,0.00,,,0.00,Wunderground v.1.15,2013-07-23 14:50:00,
2013-07-23 07:55:00,62.9,55.6,29.99,WSW,249,0.0,0.0,77,0.00,,,0.00,Wunderground v.1.15,2013-07-23 14:55:00,
2013-07-23 08:00:00,63.3,55.6,29.99,WSW,245,0.0,0.0,76,0.00,,,0.00,Wunderground v.1.15,2013-07-23 15:00:00,
2013-07-23 08:05:00,63.7,55.6,29.99,WSW,246,0.0,0.0,75,0.00,,,0.00,Wunderground v.1.15,2013-07-23 15:05:00,
2013-07-23 08:15:00,64.3,55.8,29.98,WSW,246,0.0,0.0,74,0.00,,,0.00,Wunderground v.1.15,2013-07-23 15:15:00,
2013-07-23 08:20:00,64.6,55.7,29.98,SW,223,0.0,1.0,73,0.00,,,0.00,Wunderground v.1.15,2013-07-23 15:20:00,
2013-07-23 08:25:00,64.9,56.0,29.99,SW,225,0.0,1.0,73,0.00,,,0.00,Wunderground v.1.15,2013-07-23 15:25:00,
2013-07-23 08:30:00,65.4,56.1,29.99,West,265,0.0,2.0,72,0.00,,,0.00,Wunderground v.1.15,2013-07-23 15:30:00,
2013-07-23 08:40:00,65.9,56.2,29.99,West,263,0.0,1.0,71,0.00,,,0.00,Wunderground v.1.15,2013-07-23 15:40:00,
2013-07-23 08:45:00,66.4,56.7,29.99,SW,217,0.0,1.0,71,0.00,,,0.00,Wunderground v.1.15,2013-07-23 15:45:00,
2013-07-23 08:50:00,67.0,56.9,29.99,WSW,250,0.0,0.0,70,0.00,,,0.00,Wunderground v.1.15,2013-07-23 15:50:00,
2013-07-23 08:55:00,67.3,56.8,29.99,WSW,243,1.0,1.0,69,0.00,,,0.00,Wunderground v.1.15,2013-07-23 15:55:00,
2013-07-23 09:00:00,67.6,56.7,29.99,WSW,247,1.0,1.0,68,0.00,,,0.00,Wunderground v.1.15,2013-07-23 16:00:00,
2013-07-23 09:05:00,68.0,57.0,30.00,WSW,256,0.0,1.0,68,0.00,,,0.00,Wunderground v.1.15,2013-07-23 16:05:00,
2013-07-23 09:15:00,68.8,57.0,30.00,West,274,0.0,0.0,66,0.00,,,0.00,Wunderground v.1.15,2013-07-23 16:15:00,
2013-07-23 09:20:00,69.2,56.9,30.00,West,277,0.0,0.0,65,0.00,,,0.00,Wunderground v.1.15,2013-07-23 16:20:00,
2013-07-23 09:25:00,69.5,57.2,30.00,West,281,0.0,0.0,65,0.00,,,0.00,Wunderground v.1.15,2013-07-23 16:25:00,
2013-07-23 09:35:00,70.8,56.7,30.00,West,269,0.0,0.0,61,0.00,,,0.00,Wunderground v.1.15,2013-07-23 16:35:00,
2013-07-23 09:40:00,72.2,57.1,30.00,West,279,0.0,0.0,59,0.00,,,0.00,Wunderground v.1.15,2013-07-23 16:40:00,
2013-07-23 09:45:00,73.3,57.6,30.00,West,266,0.0,0.0,58,0.00,,,0.00,Wunderground v.1.15,2013-07-23 16:45:00,
2013-07-23 09:50:00,74.5,57.3,29.99,SSE,158,0.0,0.0,55,0.00,,,0.00,Wunderground v.1.15,2013-07-23 16:50:00,
2013-07-23 09:55:00,75.4,57.1,30.00,WSW,248,0.0,0.0,53,0.00,,,0.00,Wunderground v.1.15,2013-07-23 16:55:00,
2013-07-23 10:00:00,75.7,56.8,30.00,WNW,284,0.0,0.0,52,0.00,,,0.00,Wunderground v.1.15,2013-07-23 17:00:00,
2013-07-23 10:05:00,76.5,57.6,30.00,WSW,257,0.0,2.0,52,0.00,,,0.00,Wunderground v.1.15,2013-07-23 17:05:00,
2013-07-23 10:10:00,76.5,56.5,30.00,WNW,288,1.0,1.0,50,0.00,,,0.00,Wunderground v.1.15,2013-07-23 17:10:00,
2013-07-23 10:15:00,76.3,55.7,30.00,West,268,1.0,2.0,49,0.00,,,0.00,Wunderground v.1.15,2013-07-23 17:15:00,
2013-07-23 10:20:00,76.6,56.6,30.00,WSW,248,1.0,1.0,50,0.00,,,0.00,Wunderground v.1.15,2013-07-23 17:20:00,
2013-07-23 10:25:00,77.2,56.6,30.00,NE,41,1.0,1.0,49,0.00,,,0.00,Wunderground v.1.15,2013-07-23 17:25:00,
2013-07-23 10:30:00,77.7,57.0,30.00,North,355,1.0,1.0,49,0.00,,,0.00,Wunderground v.1.15,2013-07-23 17:30:00,
2013-07-23 10:40:00,78.4,55.9,30.00,SE,140,0.0,0.0,46,0.00,,,0.00,Wunderground v.1.15,2013-07-23 17:40:00,
2013-07-23 10:45:00,78.7,54.3,30.00,NW,322,0.0,0.0,43,0.00,,,0.00,Wunderground v.1.15,2013-07-23 17:45:00,
2013-07-23 10:50:00,78.7,53.0,30.00,NW,304,0.0,0.0,41,0.00,,,0.00,Wunderground v.1.15,2013-07-23 17:50:00,
2013-07-23 11:00:00,79.2,55.4,30.00,NNW,329,1.0,1.0,44,0.00,,,0.00,Wunderground v.1.15,2013-07-23 18:00:00,
2013-07-23 11:05:00,79.5,55.0,30.00,WNW,294,1.0,1.0,43,0.00,,,0.00,Wunderground v.1.15,2013-07-23 18:05:00,
2013-07-23 11:15:00,80.5,52.6,30.00,WNW,284,1.0,3.0,38,0.00,,,0.00,Wunderground v.1.15,2013-07-23 18:15:00,
2013-07-23 11:20:00,79.8,52.6,30.00,WNW,282,2.0,2.0,39,0.00,,,0.00,Wunderground v.1.15,2013-07-23 18:20:00,
2013-07-23 11:30:00,79.2,52.8,30.00,West,279,1.0,1.0,40,0.00,,,0.00,Wunderground v.1.15,2013-07-23 18:30:00,
2013-07-23 11:40:00,79.9,54.1,29.99,West,261,1.0,1.0,41,0.00,,,0.00,Wunderground v.1.15,2013-07-23 18:40:00,
2013-07-23 11:45:00,80.2,55.0,29.99,West,276,1.0,2.0,42,0.00,,,0.00,Wunderground v.1.15,2013-07-23 18:45:00,
2013-07-23 11:50:00,79.9,54.1,30.00,West,264,1.0,2.0,41,0.00,,,0.00,Wunderground v.1.15,2013-07-23 18:50:00,
2013-07-23 11:55:00,80.0,52.1,29.99,WSW,255,1.0,2.0,38,0.00,,,0.00,Wunderground v.1.15,2013-07-23 18:55:00,
2013-07-23 12:00:00,80.2,50.1,29.99,WSW,252,1.0,2.0,35,0.00,,,0.00,Wunderground v.1.15,2013-07-23 19:00:00,
2013-07-23 12:10:00,80.0,52.1,29.99,West,259,1.0,1.0,38,0.00,,,0.00,Wunderground v.1.15,2013-07-23 19:10:00,
2013-07-23 12:15:00,80.1,54.3,30.00,WSW,253,1.0,1.0,41,0.00,,,0.00,Wunderground v.1.15,2013-07-23 19:15:00,
2013-07-23 12:20:00,80.1,54.9,30.00,North,355,1.0,1.0,42,0.00,,,0.00,Wunderground v.1.15,2013-07-23 19:20:00,
2013-07-23 12:30:00,78.3,55.2,30.00,West,267,2.0,2.0,45,0.00,,,0.00,Wunderground v.1.15,2013-07-23 19:30:00,
2013-07-23 12:35:00,77.3,55.5,30.00,WNW,303,2.0,3.0,47,0.00,,,0.00,Wunderground v.1.15,2013-07-23 19:35:00,
2013-07-23 12:45:00,75.5,54.4,30.00,NW,313,3.0,3.0,48,0.00,,,0.00,Wunderground v.1.15,2013-07-23 19:45:00,
2013-07-23 12:55:00,74.6,55.3,30.00,WNW,303,2.0,2.0,51,0.00,,,0.00,Wunderground v.1.15,2013-07-23 19:55:00,
2013-07-23 13:00:00,74.0,55.3,30.00,WNW,297,2.0,2.0,52,0.00,,,0.00,Wunderground v.1.15,2013-07-23 20:00:00,
2013-07-23 13:10:00,73.9,55.7,30.00,NW,310,2.0,3.0,53,0.00,,,0.00,Wunderground v.1.15,2013-07-23 20:10:00,
2013-07-23 13:15:00,73.5,55.8,30.00,NNW,338,2.0,3.0,54,0.00,,,0.00,Wunderground v.1.15,2013-07-23 20:15:00,
2013-07-23 13:25:00,73.8,55.6,30.00,West,263,1.0,3.0,53,0.00,,,0.00,Wunderground v.1.15,2013-07-23 20:25:00,
2013-07-23 13:35:00,74.3,55.5,30.00,WNW,292,2.0,2.0,52,0.00,,,0.00,Wunderground v.1.15,2013-07-23 20:35:00,
2013-07-23 13:45:00,74.8,56.0,30.00,WSW,256,1.0,2.0,52,0.00,,,0.00,Wunderground v.1.15,2013-07-23 20:45:00,
2013-07-23 13:50:00,75.5,55.0,30.00,WSW,238,1.0,1.0,49,0.00,,,0.00,Wunderground v.1.15,2013-07-23 20:50:00,
2013-07-23 13:55:00,76.1,56.7,30.00,West,269,1.0,1.0,51,0.00,,,0.00,Wunderground v.1.15,2013-07-23 20:55:00,
2013-07-23 14:00:00,75.9,56.5,30.00,West,279,1.0,4.0,51,0.00,,,0.00,Wunderground v.1.15,2013-07-23 21:00:00,
2013-07-23 14:10:00,73.7,55.5,30.00,WNW,296,3.0,5.0,53,0.00,,,0.00,Wunderground v.1.15,2013-07-23 21:10:00,
2013-07-23 14:15:00,73.2,56.6,30.00,WSW,244,3.0,5.0,56,0.00,,,0.00,Wunderground v.1.15,2013-07-23 21:15:00,
2013-07-23 14:25:00,72.9,55.3,30.00,WSW,238,1.0,2.0,54,0.00,,,0.00,Wunderground v.1.15,2013-07-23 21:25:00,
2013-07-23 14:30:00,72.6,55.0,30.00,NW,309,1.0,1.0,54,0.00,,,0.00,Wunderground v.1.15,2013-07-23 21:30:00,
2013-07-23 14:35:00,72.7,55.6,30.00,WNW,283,1.0,4.0,55,0.00,,,0.00,Wunderground v.1.15,2013-07-23 21:35:00,
2013-07-23 14:40:00,72.6,55.0,30.00,West,263,1.0,1.0,54,0.00,,,0.00,Wunderground v.1.15,2013-07-23 21:40:00,
2013-07-23 14:50:00,72.7,54.1,29.99,WNW,289,0.0,2.0,52,0.00,,,0.00,Wunderground v.1.15,2013-07-23 21:50:00,
2013-07-23 14:55:00,72.0,52.9,29.99,NNW,336,1.0,2.0,51,0.00,,,0.00,Wunderground v.1.15,2013-07-23 21:55:00,
2013-07-23 15:00:00,71.7,52.6,29.99,West,260,1.0,1.0,51,0.00,,,0.00,Wunderground v.1.15,2013-07-23 22:00:00,
2013-07-23 15:05:00,71.9,52.8,29.99,WSW,255,1.0,4.0,51,0.00,,,0.00,Wunderground v.1.15,2013-07-23 22:05:00,
2013-07-23 15:10:00,72.0,52.9,29.99,WSW,246,1.0,1.0,51,0.00,,,0.00,Wunderground v.1.15,2013-07-23 22:10:00,
2013-07-23 15:20:00,72.2,52.0,29.98,WSW,246,1.0,1.0,49,0.00,,,0.00,Wunderground v.1.15,2013-07-23 22:20:00,
2013-07-23 15:25:00,72.3,52.1,29.98,West,265,1.0,1.0,49,0.00,,,0.00,Wunderground v.1.15,2013-07-23 22:25:00,
2013-07-23 15:30:00,72.2,50.8,29.98,West,278,1.0,3.0,47,0.00,,,0.00,Wunderground v.1.15,2013-07-23 22:30:00,
2013-07-23 15:35:00,72.0,50.7,29.98,NNW,333,1.0,3.0,47,0.00,,,0.00,Wunderground v.1.15,2013-07-23 22:35:00,
2013-07-23 15:40:00,72.0,50.1,29.98,WSW,246,1.0,1.0,46,0.00,,,0.00,Wunderground v.1.15,2013-07-23 22:40:00,
2013-07-23 15:45:00,71.7,49.8,29.98,WNW,295,2.0,2.0,46,0.00,,,0.00,Wunderground v.1.15,2013-07-23 22:45:00,
2013-07-23 15:50:00,71.6,49.7,29.98,WSW,245,2.0,2.0,46,0.00,,,0.00,Wunderground v.1.15,2013-07-23 22:50:00,
2013-07-23 15:55:00,71.5,49.6,29.98,SW,228,2.0,2.0,46,0.00,,,0.00,Wunderground v.1.15,2013-07-23 22:55:00,
2013-07-23 16:00:00,71.8,49.3,29.98,WSW,247,2.0,2.0,45,0.00,,,0.00,Wunderground v.1.15,2013-07-23 23:00:00,
2013-07-23 16:10:00,72.0,50.1,29.98,NNW,338,2.0,2.0,46,0.00,,,0.00,Wunderground v.1.15,2013-07-23 23:10:00,
2013-07-23 16:15:00,72.8,50.2,29.98,West,277,1.0,2.0,45,0.00,,,0.00,Wunderground v.1.15,2013-07-23 23:15:00,
2013-07-23 16:20:00,73.3,50.1,29.98,West,279,0.0,0.0,44,0.00,,,0.00,Wunderground v.1.15,2013-07-23 23:20:00,
2013-07-23 16:25:00,73.4,51.4,29.97,WSW,257,1.0,1.0,46,0.00,,,0.00,Wunderground v.1.15,2013-07-23 23:25:00,
2013-07-23 16:35:00,73.4,51.9,29.97,North,10,1.0,7.0,47,0.00,,,0.00,Wunderground v.1.15,2013-07-23 23:35:00,
2013-07-23 16:40:00,73.2,52.3,29.97,WNW,300,2.0,2.0,48,0.00,,,0.00,Wunderground v.1.15,2013-07-23 23:40:00,
2013-07-23 16:45:00,73.2,51.8,29.97,WNW,296,2.0,2.0,47,0.00,,,0.00,Wunderground v.1.15,2013-07-23 23:45:00,
2013-07-23 16:50:00,73.1,51.7,29.97,WSW,251,1.0,2.0,47,0.00,,,0.00,Wunderground v.1.15,2013-07-23 23:50:00,
2013-07-23 16:55:00,72.9,52.1,29.97,West,275,1.0,3.0,48,0.00,,,0.00,Wunderground v.1.15,2013-07-23 23:55:00,
2013-07-23 17:00:00,72.6,51.8,29.97,SW,225,2.0,2.0,48,0.00,,,0.00,Wunderground v.1.15,2013-07-24 00:00:00,
2013-07-23 17:10:00,71.9,51.7,29.97,WNW,288,2.0,3.0,49,0.00,,,0.00,Wunderground v.1.15,2013-07-24 00:10:00,
2013-07-23 17:15:00,71.9,51.1,29.97,West,271,2.0,3.0,48,0.00,,,0.00,Wunderground v.1.15,2013-07-24 00:15:00,
2013-07-23 17:20:00,72.0,51.8,29.97,WNW,302,2.0,2.0,49,0.00,,,0.00,Wunderground v.1.15,2013-07-24 00:20:00,
2013-07-23 17:35:00,72.0,50.7,29.97,WNW,303,1.0,3.0,47,0.00,,,0.00,Wunderground v.1.15,2013-07-24 00:35:00,
2013-07-23 17:40:00,71.9,50.0,29.97,WSW,257,1.0,4.0,46,0.00,,,0.00,Wunderground v.1.15,2013-07-24 00:40:00,
2013-07-23 17:50:00,72.3,50.4,29.97,NW,304,1.0,1.0,46,0.00,,,0.00,Wunderground v.1.15,2013-07-24 00:50:00,
2013-07-23 17:55:00,73.1,49.9,29.96,West,274,1.0,1.0,44,0.00,,,0.00,Wunderground v.1.15,2013-07-24 00:55:00,
2013-07-23 18:00:00,73.7,49.8,29.96,NNW,339,1.0,1.0,43,0.00,,,0.00,Wunderground v.1.15,2013-07-24 01:00:00,
2013-07-23 18:10:00,74.0,51.3,29.96,WSW,258,1.0,1.0,45,0.00,,,0.00,Wunderground v.1.15,2013-07-24 01:10:00,
2013-07-23 18:15:00,73.4,51.4,29.96,WNW,302,1.0,3.0,46,0.00,,,0.00,Wunderground v.1.15,2013-07-24 01:15:00,
2013-07-23 18:20:00,72.5,51.7,29.96,WNW,285,1.0,1.0,48,0.00,,,0.00,Wunderground v.1.15,2013-07-24 01:20:00,
2013-07-23 18:25:00,72.1,52.4,29.96,West,268,1.0,1.0,50,0.00,,,0.00,Wunderground v.1.15,2013-07-24 01:25:00,
2013-07-23 18:35:00,70.9,52.9,29.96,NNW,344,2.0,3.0,53,0.00,,,0.00,Wunderground v.1.15,2013-07-24 01:35:00,
2013-07-23 18:40:00,70.7,53.2,29.96,NNW,348,1.0,1.0,54,0.00,,,0.00,Wunderground v.1.15,2013-07-24 01:40:00,
2013-07-23 18:45:00,70.5,53.1,29.97,West,273,0.0,1.0,54,0.00,,,0.00,Wunderground v.1.15,2013-07-24 01:45:00,
2013-07-23 18:55:00,70.0,53.1,29.96,West,267,1.0,5.0,55,0.00,,,0.00,Wunderground v.1.15,2013-07-24 01:55:00,
2013-07-23 19:05:00,69.4,52.5,29.96,West,261,2.0,3.0,55,0.00,,,0.00,Wunderground v.1.15,2013-07-24 02:05:00,
2013-07-23 19:10:00,69.3,52.4,29.96,WNW,303,1.0,1.0,55,0.00,,,0.00,Wunderground v.1.15,2013-07-24 02:10:00,
2013-07-23 19:15:00,69.4,52.5,29.96,WNW,303,0.0,1.0,55,0.00,,,0.00,Wunderground v.1.15,2013-07-24 02:15:00,
2013-07-23 19:25:00,69.7,52.3,29.96,West,267,0.0,0.0,54,0.00,,,0.00,Wunderground v.1.15,2013-07-24 02:25:00,
2013-07-23 19:35:00,69.5,53.1,29.96,West,280,0.0,0.0,56,0.00,,,0.00,Wunderground v.1.15,2013-07-24 02:35:00,
2013-07-23 19:45:00,68.9,53.5,29.96,WNW,292,0.0,0.0,58,0.00,,,0.00,Wunderground v.1.15,2013-07-24 02:45:00,
2013-07-23 19:50:00,68.5,53.1,29.96,WNW,292,0.0,0.0,58,0.00,,,0.00,Wunderground v.1.15,2013-07-24 02:50:00,
2013-07-23 20:00:00,67.7,52.9,29.96,NW,311,0.0,0.0,59,0.00,,,0.00,Wunderground v.1.15,2013-07-24 03:00:00,
2013-07-23 20:10:00,67.0,52.7,29.96,NW,311,0.0,0.0,60,0.00,,,0.00,Wunderground v.1.15,2013-07-24 03:10:00,
2013-07-23 20:15:00,66.6,52.7,29.96,NW,312,0.0,0.0,61,0.00,,,0.00,Wunderground v.1.15,2013-07-24 03:15:00,
2013-07-23 20:25:00,66.0,52.2,29.97,NW,313,0.0,0.0,61,0.00,,,0.00,Wunderground v.1.15,2013-07-24 03:25:00,
2013-07-23 20:40:00,65.3,51.9,29.97,NW,313,0.0,0.0,62,0.00,,,0.00,Wunderground v.1.15,2013-07-24 03:40:00,
2013-07-23 20:45:00,65.0,52.1,29.97,NW,313,0.0,0.0,63,0.00,,,0.00,Wunderground v.1.15,2013-07-24 03:45:00,
2013-07-23 20:50:00,64.8,51.9,29.97,NW,313,0.0,0.0,63,0.00,,,0.00,Wunderground v.1.15,2013-07-24 03:50:00,
2013-07-23 20:55:00,64.5,52.0,29.97,NW,313,0.0,0.0,64,0.00,,,0.00,Wunderground v.1.15,2013-07-24 03:55:00,
2013-07-23 21:05:00,64.0,52.0,29.97,NW,313,0.0,0.0,65,0.00,,,0.00,Wunderground v.1.15,2013-07-24 04:05:00,
2013-07-23 21:10:00,63.8,52.2,29.97,NW,325,0.0,0.0,66,0.00,,,0.00,Wunderground v.1.15,2013-07-24 04:10:00,
2013-07-23 21:15:00,63.6,52.0,29.97,NW,324,0.0,0.0,66,0.00,,,0.00,Wunderground v.1.15,2013-07-24 04:15:00,
2013-07-23 21:20:00,63.4,51.8,29.97,NW,326,0.0,0.0,66,0.00,,,0.00,Wunderground v.1.15,2013-07-24 04:20:00,
2013-07-23 21:25:00,63.3,51.7,29.97,NW,326,0.0,0.0,66,0.00,,,0.00,Wunderground v.1.15,2013-07-24 04:25:00,
2013-07-23 21:35:00,63.1,52.0,29.98,NNW,327,0.0,1.0,67,0.00,,,0.00,Wunderground v.1.15,2013-07-24 04:35:00,
2013-07-23 21:40:00,63.0,51.9,29.97,NNW,327,0.0,0.0,67,0.00,,,0.00,Wunderground v.1.15,2013-07-24 04:40:00,
2013-07-23 21:45:00,62.9,51.8,29.98,NNW,327,0.0,0.0,67,0.00,,,0.00,Wunderground v.1.15,2013-07-24 04:45:00,
2013-07-23 21:55:00,62.7,51.6,29.98,NNW,331,0.0,0.0,67,0.00,,,0.00,Wunderground v.1.15,2013-07-24 04:55:00,
2013-07-23 22:00:00,62.7,51.6,29.98,NNW,327,0.0,0.0,67,0.00,,,0.00,Wunderground v.1.15,2013-07-24 05:00:00,
2013-07-23 22:10:00,62.6,51.5,29.97,NNW,327,0.0,0.0,67,0.00,,,0.00,Wunderground v.1.15,2013-07-24 05:10:00,
2013-07-23 22:15:00,62.5,51.4,29.97,NW,325,0.0,0.0,67,0.00,,,0.00,Wunderground v.1.15,2013-07-24 05:15:00,
2013-07-23 22:20:00,62.6,51.5,29.97,NW,312,0.0,0.0,67,0.00,,,0.00,Wunderground v.1.15,2013-07-24 05:20:00,
2013-07-23 22:25:00,62.6,51.9,29.97,NNW,328,0.0,0.0,68,0.00,,,0.00,Wunderground v.1.15,2013-07-24 05:25:00,
2013-07-23 22:35:00,62.6,51.5,29.97,NNW,337,0.0,3.0,67,0.00,,,0.00,Wunderground v.1.15,2013-07-24 05:35:00,
2013-07-23 22:40:00,62.7,51.6,29.97,NNW,327,1.0,1.0,67,0.00,,,0.00,Wunderground v.1.15,2013-07-24 05:40:00,
2013-07-23 22:45:00,62.6,51.5,29.97,NW,311,0.0,1.0,67,0.00,,,0.00,Wunderground v.1.15,2013-07-24 05:45:00,
2013-07-23 22:50:00,62.6,51.5,29.97,NW,319,0.0,0.0,67,0.00,,,0.00,Wunderground v.1.15,2013-07-24 05:50:00,
2013-07-23 22:55:00,62.8,51.7,29.97,NW,321,0.0,2.0,67,0.00,,,0.00,Wunderground v.1.15,2013-07-24 05:55:00,
2013-07-23 23:05:00,63.3,51.7,29.97,NNW,333,1.0,1.0,66,0.00,,,0.00,Wunderground v.1.15,2013-07-24 06:05:00,
2013-07-23 23:10:00,63.4,51.8,29.97,NW,323,0.0,0.0,66,0.00,,,0.00,Wunderground v.1.15,2013-07-24 06:10:00,
2013-07-23 23:20:00,63.2,51.6,29.97,NW,304,0.0,0.0,66,0.00,,,0.00,Wunderground v.1.15,2013-07-24 06:20:00,
2013-07-23 23:25:00,62.9,51.8,29.97,NNW,331,0.0,1.0,67,0.00,,,0.00,Wunderground v.1.15,2013-07-24 06:25:00,
2013-07-23 23:30:00,62.9,51.8,29.98,NW,323,0.0,1.0,67,0.00,,,0.00,Wunderground v.1.15,2013-07-24 06:30:00,
2013-07-23 23:35:00,62.8,51.7,29.98,NW,319,0.0,1.0,67,0.00,,,0.00,Wunderground v.1.15,2013-07-24 06:35:00,
2013-07-23 23:45:00,62.7,51.6,29.98,NW,322,0.0,0.0,67,0.00,,,0.00,Wunderground v.1.15,2013-07-24 06:45:00,
2013-07-23 23:50:00,62.7,51.6,29.97,NW,320,0.0,0.0,67,0.00,,,0.00,Wunderground v.1.15,2013-07-24 06:50:00,
2013-07-23 23:55:00,62.6,51.5,29.97,NNW,327,0.0,1.0,67,0.00,,,0.00,Wunderground v.1.15,2013-07-24 06:55:00,